Vårt webkamera more information My webcam


webkamera på Randaberg more information webcam on Randaberg


Nedbørsradar  rain snow radar


Besøk vår andre værside:

Alternativ webside

Alternativ mobil

Regnskvett RandabergWebsite of another weatherstation



Ikke nødvendig med spesiell oppmerksomhet.    Det er ingen advarsler

Nære METAR rapporter

   
ENHD - Haugesund
oppdatert: 14-11-2019 05:20
For det meste skyet  
For det meste skyet  
   Vind: ØNØ 4.1 m/s
Vind: ØNØ 4.1 m/s
Temperatur: 5°C
Wind Chill: 2°C
Duggpunkt: -2°C
Fuktighet: 61%
Barometer: 999 hPa
Skyer: For det meste skyet
Sikt: More than 10 km
Skydetaljer: få skyer 1889.8 m,
For det meste skyet 2377.4 m
ENHD 140420Z AUTO 06008KT 9999 FEW062/// BKN078/// 05/M02 Q0999
ENZV - Randaberg
oppdatert: 14-11-2019 05:20
For det meste skyet  
For det meste skyet  
   Vind: varierer 0.5 m/s
Vind: varierer 0.5 m/s
Temperatur: 4°C
Duggpunkt: 2°C
Fuktighet: 87%
Barometer: 999 hPa
Skyer: For det meste skyet
Sikt: More than 10 km
Skydetaljer: få skyer 335.3 m,
For det meste skyet 1493.5 m
ENZV 140420Z VRB01KT 9999 FEW011 BKN049 04/02 Q0999
ENBR - Bergen
oppdatert: 14-11-2019 05:20
Klart  
Klart  
   Vind: varierer 1.5 m/s
Vind: varierer 1.5 m/s
Temperatur: 1°C
Wind Chill: -1°C
Duggpunkt: -3°C
Fuktighet: 75%
Barometer: 1000 hPa
Sikt: More than 10 km
Skydetaljer: Klart
ENBR 140420Z VRB03KT CAVOK 01/M03 Q1000 RMK WIND 1200FT 07002KT
ENCN - Kristiansand
oppdatert: 14-11-2019 05:20
Overskyet  
Overskyet  
   Vind: NØ 6.2 m/s
Vind: NØ 6.2 m/s
Temperatur: 4°C
Wind Chill: -1°C
Duggpunkt: 4°C
Fuktighet: 100%
Barometer: 999 hPa
Skyer: Overskyet
Sikt: More than 10 km
Skydetaljer: Overskyet 213.4 m
ENCN 140420Z AUTO 04012KT 9999 OVC007/// 04/04 Q0999
ENGM - Oslo
oppdatert: 14-11-2019 05:20
Lett regn, For det meste skyet  
Lett regn, For det meste skyet  
   Vind: Stille
Vind: Stille
Temperatur: 0°C
Duggpunkt: 0°C
Fuktighet: 100%
Barometer: 1004 hPa
Skyer: For det meste skyet
Sikt: 8 km
Skydetaljer: få skyer 61 m,
For det meste skyet 304.8 m
ENGM 140420Z 00000KT 8000 -RA FEW002 BKN010 00/00 Q1004
ENVA - Trondheim
oppdatert: 14-11-2019 05:20
Klart  
Klart  
   Vind: ØSØ 3.1 m/s
Vind: ØSØ 3.1 m/s
Temperatur: -3°C
Wind Chill: -7°C
Duggpunkt: -4°C
Fuktighet: 93%
Barometer: 1003 hPa
Sikt: More than 10 km
Skydetaljer: Klart
ENVA 140420Z 11006KT CAVOK M03/M04 Q1003 RMK WIND 670FT 10004KT

Script utviklet av  Saratoga-weather.org Tilrettelagt for malen av  Weerstation Leuven

Du finner vår vær info også på:

European Weather Network

WeatherCloud

Weather Underground

Citizen Weather Observer Program (CWOP)

Utstyr vi bruker:

Værstsjon
Oregon scientific WMR 300

Værprogram
Meteobridge

Oregon scientific WMR 300

Meteobridge